createdAt,value
2019-05-20T00:02:25.868Z,59.00
2019-05-20T00:05:09.439Z,45.43
2019-05-20T00:07:44.022Z,45.43
2019-05-20T00:10:22.032Z,48.87
2019-05-20T00:13:00.249Z,39.63
2019-05-20T00:15:44.125Z,37.67
2019-05-20T00:18:21.296Z,37.50
2019-05-20T00:20:55.295Z,42.03
2019-05-20T00:23:39.386Z,42.90
2019-05-20T00:26:18.134Z,37.50
2019-05-20T00:29:04.645Z,42.63
2019-05-20T00:31:39.367Z,47.22
2019-05-20T00:34:12.024Z,38.70
2019-05-20T00:36:45.455Z,46.03
2019-05-20T00:39:22.313Z,40.80
2019-05-20T00:42:09.466Z,42.08
2019-05-20T00:48:16.886Z,87.22
2019-05-20T00:50:56.000Z,54.87
2019-05-20T00:53:29.227Z,48.30
2019-05-20T00:56:01.902Z,45.80
2019-05-20T00:58:34.564Z,45.80
2019-05-20T01:01:07.870Z,49.20
2019-05-20T01:03:41.617Z,50.17
2019-05-20T01:06:15.027Z,52.73
2019-05-20T01:08:49.954Z,44.33
2019-05-20T01:11:24.468Z,50.57
2019-05-20T01:13:57.039Z,55.27
2019-05-20T01:16:29.750Z,67.77
2019-05-20T01:19:02.349Z,66.00
2019-05-20T01:21:35.866Z,69.60
2019-05-20T01:24:09.160Z,65.97
2019-05-20T01:26:41.688Z,54.53
2019-05-20T01:29:14.323Z,53.33
2019-05-20T01:31:47.122Z,58.77
2019-05-20T01:34:20.320Z,54.37
2019-05-20T01:36:53.717Z,55.60
2019-05-20T01:39:27.096Z,48.50
2019-05-20T01:41:59.848Z,47.50
2019-05-20T01:44:33.373Z,47.30
2019-05-20T01:47:07.924Z,57.37
2019-05-20T01:49:41.937Z,80.90
2019-05-20T01:52:15.169Z,94.70
2019-05-20T01:54:56.745Z,97.50
2019-05-20T01:57:50.497Z,97.90
2019-05-20T02:00:24.625Z,115.12
2019-05-20T02:02:57.334Z,91.57
2019-05-20T02:05:29.959Z,83.77
2019-05-20T02:08:07.507Z,82.63
2019-05-20T02:10:40.272Z,67.73
2019-05-20T02:13:12.773Z,66.93
2019-05-20T02:15:54.336Z,69.55
2019-05-20T02:18:27.161Z,71.07
2019-05-20T02:20:59.727Z,87.30
2019-05-20T02:23:32.294Z,92.50
2019-05-20T02:26:04.872Z,79.70
2019-05-20T02:28:37.468Z,67.23
2019-05-20T02:31:10.052Z,51.63
2019-05-20T02:33:51.599Z,59.37
2019-05-20T02:36:26.964Z,69.70
2019-05-20T02:38:59.705Z,69.50
2019-05-20T02:41:32.460Z,76.67
2019-05-20T02:44:05.016Z,61.80
2019-05-20T02:46:37.816Z,70.03
2019-05-20T02:49:10.392Z,76.03
2019-05-20T02:51:42.999Z,76.07
2019-05-20T02:54:15.458Z,76.00
2019-05-20T02:56:48.081Z,71.50
2019-05-20T02:59:21.882Z,65.67
2019-05-20T03:01:54.746Z,98.65
2019-05-20T03:04:27.455Z,86.77
2019-05-20T03:07:00.237Z,81.53
2019-05-20T03:09:33.212Z,86.17
2019-05-20T03:12:05.833Z,113.25
2019-05-20T03:14:38.378Z,97.57
2019-05-20T03:17:11.087Z,100.63
2019-05-20T03:19:43.625Z,100.43
2019-05-20T03:22:18.519Z,86.87
2019-05-20T03:24:51.117Z,89.90
2019-05-20T03:27:25.762Z,95.20
2019-05-20T03:30:00.740Z,95.30
2019-05-20T03:32:36.587Z,112.05
2019-05-20T03:35:13.962Z,94.93
2019-05-20T03:37:48.633Z,88.67
2019-05-20T03:40:22.263Z,94.53
2019-05-20T03:42:54.966Z,95.17
2019-05-20T03:45:28.234Z,88.63
2019-05-20T03:48:00.991Z,84.60
2019-05-20T03:50:34.271Z,87.17
2019-05-20T03:53:07.381Z,86.00
2019-05-20T03:55:39.890Z,84.17
2019-05-20T03:58:13.798Z,105.05
2019-05-20T04:00:47.889Z,84.47
2019-05-20T04:03:20.657Z,84.40
2019-05-20T04:05:55.143Z,80.93
2019-05-20T04:08:30.653Z,80.00
2019-05-20T04:11:03.745Z,83.87
2019-05-20T04:13:36.483Z,78.77
2019-05-20T04:16:10.008Z,78.37
2019-05-20T04:18:43.871Z,77.20
2019-05-20T04:21:16.504Z,77.10
2019-05-20T04:23:49.399Z,77.40
2019-05-20T04:26:22.137Z,84.07
2019-05-20T04:28:55.354Z,76.10
2019-05-20T04:31:28.007Z,72.07
2019-05-20T04:34:01.029Z,74.93
2019-05-20T04:36:33.567Z,73.87
2019-05-20T04:39:08.675Z,71.50
2019-05-20T04:41:41.427Z,75.40
2019-05-20T04:44:14.521Z,86.97
2019-05-20T04:46:47.222Z,83.32
2019-05-20T04:49:19.901Z,81.82
2019-05-20T04:51:52.800Z,68.03
2019-05-20T04:54:25.534Z,69.40
2019-05-20T04:56:58.073Z,84.83
2019-05-20T04:59:30.510Z,85.18
2019-05-20T05:02:03.241Z,68.83
2019-05-20T05:04:35.809Z,66.50
2019-05-20T05:07:08.672Z,74.63
2019-05-20T05:09:41.145Z,71.87
2019-05-20T05:12:17.742Z,66.30
2019-05-20T05:14:50.259Z,65.77
2019-05-20T05:17:22.853Z,64.87
2019-05-20T05:19:55.691Z,66.07
2019-05-20T05:22:28.421Z,74.20
2019-05-20T05:25:00.986Z,74.03
2019-05-20T05:27:34.412Z,71.70
2019-05-20T05:30:07.955Z,70.37
2019-05-20T05:32:41.563Z,73.73
2019-05-20T05:35:17.403Z,67.87
2019-05-20T05:37:50.148Z,68.20
2019-05-20T05:40:32.565Z,67.30
2019-05-20T05:43:05.281Z,68.40
2019-05-20T05:45:39.285Z,71.13
2019-05-20T05:48:12.133Z,71.57
2019-05-20T05:50:44.768Z,71.20
2019-05-20T05:53:17.813Z,84.00
2019-05-20T05:55:52.860Z,75.07
2019-05-20T05:58:26.471Z,68.40
2019-05-20T06:00:59.005Z,70.20
2019-05-20T06:03:31.616Z,72.23
2019-05-20T06:06:12.065Z,83.20
2019-05-20T06:08:46.085Z,83.57
2019-05-20T06:11:19.383Z,80.37
2019-05-20T06:13:53.179Z,84.07
2019-05-20T06:16:36.373Z,85.80
2019-05-20T06:19:09.950Z,86.13
2019-05-20T06:21:42.688Z,99.63
2019-05-20T06:24:15.250Z,99.50
2019-05-20T06:26:48.717Z,83.97
2019-05-20T06:29:21.424Z,82.87
2019-05-20T06:31:54.137Z,94.20
2019-05-20T06:34:26.885Z,81.23
2019-05-20T06:37:08.143Z,75.83
2019-05-20T06:39:40.758Z,74.97
2019-05-20T06:42:13.427Z,74.27
2019-05-20T06:44:52.940Z,91.00
2019-05-20T06:47:28.933Z,77.30
2019-05-20T06:50:05.800Z,86.43
2019-05-20T06:52:40.621Z,57.47
2019-05-20T06:55:14.902Z,53.73
2019-05-20T06:57:48.799Z,52.77
2019-05-20T07:00:35.872Z,61.10
2019-05-20T07:03:08.775Z,62.92
2019-05-20T07:05:41.398Z,58.70
2019-05-20T07:08:13.931Z,61.20
2019-05-20T07:10:47.700Z,68.65
2019-05-20T07:13:22.484Z,65.00
2019-05-20T07:15:56.865Z,64.17
2019-05-20T07:18:30.354Z,66.63
2019-05-20T07:21:03.643Z,65.53
2019-05-20T07:23:36.342Z,65.77
2019-05-20T07:26:09.059Z,70.60
2019-05-20T07:28:43.315Z,72.03
2019-05-20T07:31:15.966Z,73.00
2019-05-20T07:33:48.734Z,74.67
2019-05-20T07:36:26.755Z,75.60
2019-05-20T07:39:02.274Z,77.17
2019-05-20T07:41:41.165Z,75.50
2019-05-20T07:44:14.599Z,77.57
2019-05-20T07:46:48.349Z,74.53
2019-05-20T07:49:23.950Z,70.03
2019-05-20T07:51:57.948Z,82.53
2019-05-20T07:54:31.270Z,66.80
2019-05-20T07:57:12.013Z,66.47
2019-05-20T07:59:52.824Z,65.27
2019-05-20T08:02:28.946Z,66.60
2019-05-20T08:05:05.423Z,65.97
2019-05-20T08:07:51.462Z,65.23
2019-05-20T08:10:26.594Z,68.67
2019-05-20T08:12:59.236Z,69.43
2019-05-20T08:15:32.528Z,67.43
2019-05-20T08:18:05.422Z,55.00
2019-05-20T08:20:38.002Z,51.83
2019-05-20T08:23:11.718Z,50.97
2019-05-20T08:25:45.766Z,58.17
2019-05-20T08:28:18.407Z,49.57
2019-05-20T08:30:53.275Z,47.27
2019-05-20T08:33:27.980Z,55.43
2019-05-20T08:36:00.671Z,49.70
2019-05-20T08:38:37.733Z,49.70
2019-05-20T08:41:12.163Z,47.57
2019-05-20T08:43:45.566Z,52.60
2019-05-20T08:46:18.050Z,55.43
2019-05-20T08:48:51.374Z,56.20
2019-05-20T08:51:24.601Z,57.13
2019-05-20T08:54:00.733Z,63.50
2019-05-20T08:56:35.647Z,77.32
2019-05-20T08:59:08.348Z,70.93
2019-05-20T09:01:43.857Z,62.23
2019-05-20T09:04:18.591Z,61.20
2019-05-20T09:06:54.372Z,63.13
2019-05-20T09:09:29.237Z,64.77
2019-05-20T09:12:04.476Z,65.23
2019-05-20T09:14:43.057Z,63.27
2019-05-20T09:17:17.980Z,62.43
2019-05-20T09:19:50.781Z,64.90
2019-05-20T09:22:25.807Z,66.03
2019-05-20T09:24:58.578Z,73.32
2019-05-20T09:27:31.382Z,67.47
2019-05-20T09:30:07.324Z,69.87
2019-05-20T09:32:43.386Z,65.40
2019-05-20T09:35:16.740Z,66.70
2019-05-20T09:37:49.373Z,63.07
2019-05-20T09:40:38.695Z,50.70
2019-05-20T09:43:12.101Z,46.73
2019-05-20T09:45:44.704Z,48.50
2019-05-20T09:48:19.805Z,48.55
2019-05-20T09:50:55.809Z,42.60
2019-05-20T09:53:46.885Z,49.93
2019-05-20T09:56:24.473Z,47.65
2019-05-20T09:59:00.771Z,42.50
2019-05-20T10:01:38.663Z,44.77
2019-05-20T10:04:26.091Z,45.33
2019-05-20T10:07:19.344Z,46.03
2019-05-20T10:09:58.652Z,42.37
2019-05-20T10:12:45.476Z,40.63
2019-05-20T10:15:24.967Z,36.43
2019-05-20T10:18:36.075Z,38.43
2019-05-20T10:21:14.162Z,38.93
2019-05-20T10:23:57.781Z,42.03
2019-05-20T10:26:56.025Z,33.13
2019-05-20T10:29:31.466Z,43.03
2019-05-20T10:32:04.792Z,49.45
2019-05-20T10:34:39.054Z,37.80
2019-05-20T10:37:11.750Z,35.07
2019-05-20T10:39:45.070Z,40.78
2019-05-20T10:42:29.605Z,37.47
2019-05-20T10:45:07.387Z,36.07
2019-05-20T10:47:40.016Z,34.53
2019-05-20T10:50:16.871Z,35.83
2019-05-20T10:52:50.414Z,34.53
2019-05-20T10:55:26.021Z,37.43
2019-05-20T10:58:00.823Z,37.63
2019-05-20T11:00:36.718Z,46.40
2019-05-20T11:03:13.247Z,44.70
2019-05-20T11:05:48.039Z,35.57
2019-05-20T11:08:21.655Z,39.17
2019-05-20T11:10:55.975Z,35.30
2019-05-20T11:13:30.069Z,35.90
2019-05-20T11:16:19.598Z,35.50
2019-05-20T11:18:57.880Z,39.73
2019-05-20T11:21:35.407Z,47.97
2019-05-20T11:24:09.112Z,41.13
2019-05-20T11:26:42.859Z,45.97
2019-05-20T11:29:15.556Z,44.33
2019-05-20T11:31:48.566Z,44.07
2019-05-20T11:34:21.950Z,41.27
2019-05-20T11:36:54.518Z,40.73
2019-05-20T11:39:33.224Z,39.47
2019-05-20T11:42:12.717Z,42.33
2019-05-20T11:44:45.730Z,43.17
2019-05-20T11:47:18.818Z,40.67
2019-05-20T11:49:54.399Z,40.60
2019-05-20T11:52:28.618Z,41.90
2019-05-20T11:55:01.912Z,42.33
2019-05-20T11:57:35.649Z,44.13
2019-05-20T12:00:13.679Z,46.08
2019-05-20T12:02:47.010Z,44.90
2019-05-20T12:05:22.431Z,43.63
2019-05-20T12:07:58.668Z,42.17
2019-05-20T12:10:32.984Z,43.33
2019-05-20T12:13:09.235Z,43.07
2019-05-20T12:15:43.205Z,38.60
2019-05-20T12:18:17.006Z,40.13
2019-05-20T12:20:51.236Z,38.67
2019-05-20T12:23:25.752Z,45.20
2019-05-20T12:25:58.795Z,39.83
2019-05-20T12:28:31.606Z,36.27
2019-05-20T12:31:06.237Z,40.53
2019-05-20T12:33:42.225Z,42.90
2019-05-20T12:36:17.786Z,45.53
2019-05-20T12:38:53.848Z,44.80
2019-05-20T12:41:28.042Z,40.63
2019-05-20T12:44:11.930Z,42.43
2019-05-20T12:46:50.567Z,42.13
2019-05-20T12:49:24.789Z,49.65
2019-05-20T12:52:00.106Z,45.87
2019-05-20T12:54:33.488Z,42.27
2019-05-20T12:57:07.776Z,49.33
2019-05-20T12:59:41.481Z,47.93
2019-05-20T13:02:17.525Z,51.47
2019-05-20T13:04:50.875Z,46.23
2019-05-20T13:07:27.768Z,41.07
2019-05-20T13:10:03.078Z,40.87
2019-05-20T13:12:37.862Z,38.43
2019-05-20T13:15:16.373Z,39.03
2019-05-20T13:17:49.477Z,36.77
2019-05-20T13:20:23.847Z,38.30
2019-05-20T13:22:58.278Z,37.53
2019-05-20T13:25:32.377Z,38.07
2019-05-20T13:28:12.428Z,38.57
2019-05-20T13:30:46.446Z,38.50
2019-05-20T13:33:21.881Z,38.03
2019-05-20T13:35:55.552Z,38.33
2019-05-20T13:38:28.145Z,37.87
2019-05-20T13:41:01.692Z,44.03
2019-05-20T13:43:36.374Z,37.67
2019-05-20T13:46:08.996Z,37.83
2019-05-20T13:48:41.720Z,36.67
2019-05-20T13:51:16.535Z,37.77
2019-05-20T13:53:49.166Z,39.50
2019-05-20T13:56:23.551Z,37.50
2019-05-20T13:58:57.808Z,36.50
2019-05-20T14:01:34.169Z,37.33
2019-05-20T14:04:12.231Z,38.80
2019-05-20T14:06:47.097Z,39.60
2019-05-20T14:09:21.207Z,44.03
2019-05-20T14:11:56.051Z,40.57
2019-05-20T14:14:29.130Z,40.83
2019-05-20T14:17:07.498Z,46.60
2019-05-20T14:19:41.176Z,41.70
2019-05-20T14:22:14.954Z,38.73
2019-05-20T14:24:49.497Z,43.97
2019-05-20T14:27:22.257Z,39.63
2019-05-20T14:29:56.430Z,39.50
2019-05-20T14:32:32.562Z,44.70
2019-05-20T14:35:06.328Z,45.03
2019-05-20T14:37:39.949Z,41.20
2019-05-20T14:40:13.008Z,40.90
2019-05-20T14:42:45.760Z,41.03
2019-05-20T14:45:19.603Z,44.28
2019-05-20T14:47:56.153Z,40.13
2019-05-20T14:50:28.941Z,38.97
2019-05-20T14:53:03.284Z,38.60
2019-05-20T14:55:42.218Z,40.10
2019-05-20T14:58:26.337Z,39.23
2019-05-20T15:01:06.360Z,40.43
2019-05-20T15:04:08.135Z,38.93
2019-05-20T15:06:48.269Z,37.53
2019-05-20T15:09:29.164Z,37.80
2019-05-20T15:12:10.312Z,37.57
2019-05-20T15:14:44.849Z,39.13
2019-05-20T15:17:23.879Z,38.50
2019-05-20T15:20:00.648Z,39.30
2019-05-20T15:22:33.695Z,38.37
2019-05-20T15:25:08.989Z,40.23
2019-05-20T15:27:43.749Z,38.37
2019-05-20T15:30:21.752Z,42.40
2019-05-20T15:32:56.588Z,39.83
2019-05-20T15:35:32.284Z,38.93
2019-05-20T15:38:13.594Z,41.07
2019-05-20T15:40:49.499Z,39.87
2019-05-20T15:43:26.286Z,39.00
2019-05-20T15:46:03.322Z,39.13
2019-05-20T15:48:56.817Z,38.37
2019-05-20T15:51:42.519Z,43.40
2019-05-20T15:54:17.724Z,39.30
2019-05-20T15:56:53.464Z,38.27
2019-05-20T15:59:26.796Z,38.17
2019-05-20T16:02:01.273Z,39.30
2019-05-20T16:04:34.702Z,38.03
2019-05-20T16:07:14.044Z,39.17
2019-05-20T16:09:52.035Z,40.67
2019-05-20T16:12:25.463Z,40.33
2019-05-20T16:14:58.146Z,45.03
2019-05-20T16:17:33.829Z,42.07
2019-05-20T16:20:10.564Z,38.77
2019-05-20T16:22:47.618Z,38.87
2019-05-20T16:25:23.494Z,39.07
2019-05-20T16:27:58.550Z,39.40
2019-05-20T16:30:33.323Z,38.27
2019-05-20T16:33:08.772Z,37.97
2019-05-20T16:35:48.908Z,37.47
2019-05-20T16:38:22.969Z,37.67
2019-05-20T16:40:59.353Z,36.73
2019-05-20T16:43:35.105Z,39.63
2019-05-20T16:46:09.281Z,36.63
2019-05-20T16:48:46.535Z,36.37
2019-05-20T16:51:24.474Z,36.20
2019-05-20T16:54:01.251Z,35.00
2019-05-20T16:56:38.500Z,41.20
2019-05-20T16:59:13.553Z,35.13
2019-05-20T17:01:47.423Z,36.77
2019-05-20T17:04:22.225Z,34.10
2019-05-20T17:06:55.072Z,35.70
2019-05-20T17:09:28.965Z,34.83
2019-05-20T17:12:03.036Z,36.67
2019-05-20T17:14:37.910Z,37.30
2019-05-20T17:17:13.543Z,35.97
2019-05-20T17:19:49.470Z,36.27
2019-05-20T17:22:23.350Z,37.33
2019-05-20T17:24:59.491Z,38.37
2019-05-20T17:27:34.043Z,35.77
2019-05-20T17:30:16.913Z,36.17
2019-05-20T17:32:50.477Z,42.07
2019-05-20T17:35:25.959Z,37.90
2019-05-20T17:37:59.727Z,35.87
2019-05-20T17:40:34.379Z,39.60
2019-05-20T17:43:09.734Z,40.55
2019-05-20T17:45:46.177Z,35.47
2019-05-20T17:48:20.588Z,38.30
2019-05-20T17:50:55.059Z,39.88
2019-05-20T17:53:31.394Z,37.97
2019-05-20T17:56:05.078Z,37.03
2019-05-20T17:58:38.609Z,34.67
2019-05-20T18:01:15.882Z,35.30
2019-05-20T18:03:53.242Z,39.50
2019-05-20T18:06:35.496Z,36.83
2019-05-20T18:09:13.836Z,35.03
2019-05-20T18:11:54.879Z,32.93
2019-05-20T18:14:30.188Z,32.83
2019-05-20T18:17:06.346Z,33.90
2019-05-20T18:19:42.765Z,33.83
2019-05-20T18:22:18.534Z,34.60
2019-05-20T18:24:51.671Z,38.92
2019-05-20T18:27:27.225Z,31.87
2019-05-20T18:30:08.338Z,32.93
2019-05-20T18:32:48.176Z,34.73
2019-05-20T18:35:22.191Z,34.07
2019-05-20T18:37:59.710Z,33.73
2019-05-20T18:40:33.524Z,34.17
2019-05-20T18:43:13.026Z,38.95
2019-05-20T18:45:57.148Z,33.57
2019-05-20T18:48:32.066Z,36.88
2019-05-20T18:51:09.340Z,36.57
2019-05-20T18:53:45.864Z,34.80
2019-05-20T18:56:27.136Z,36.65
2019-05-20T18:59:01.305Z,33.67
2019-05-20T19:01:46.117Z,34.60
2019-05-20T19:04:34.895Z,32.60
2019-05-20T19:07:08.339Z,32.93
2019-05-20T19:09:42.630Z,32.87
2019-05-20T19:12:16.628Z,34.77
2019-05-20T19:14:50.756Z,32.50
2019-05-20T19:17:27.486Z,33.27
2019-05-20T19:20:02.615Z,33.03
2019-05-20T19:22:37.370Z,31.17
2019-05-20T19:25:14.191Z,32.33
2019-05-20T19:27:47.806Z,33.60
2019-05-20T19:30:21.321Z,31.40
2019-05-20T19:32:57.262Z,33.73
2019-05-20T19:35:43.002Z,31.33
2019-05-20T19:38:18.505Z,35.83
2019-05-20T19:40:56.027Z,33.83
2019-05-20T19:43:33.706Z,33.73
2019-05-20T19:46:10.327Z,33.33
2019-05-20T19:48:43.734Z,34.37
2019-05-20T19:51:20.588Z,33.90
2019-05-20T19:53:54.488Z,35.40
2019-05-20T19:56:28.725Z,37.33
2019-05-20T19:59:02.471Z,35.87
2019-05-20T20:01:36.444Z,36.73
2019-05-20T20:04:14.847Z,37.77
2019-05-20T20:06:47.657Z,42.62
2019-05-20T20:09:21.917Z,38.27
2019-05-20T20:12:09.790Z,38.23
2019-05-20T20:14:52.354Z,42.17
2019-05-20T20:17:31.925Z,38.07
2019-05-20T20:20:07.636Z,39.53
2019-05-20T20:22:42.842Z,38.40
2019-05-20T20:25:17.201Z,37.83
2019-05-20T20:27:51.954Z,39.53
2019-05-20T20:30:25.157Z,37.13
2019-05-20T20:33:01.985Z,39.43
2019-05-20T20:35:38.327Z,39.60
2019-05-20T20:38:11.959Z,40.37
2019-05-20T20:40:46.675Z,42.92
2019-05-20T20:43:20.833Z,39.30
2019-05-20T20:45:57.062Z,46.40
2019-05-20T20:48:33.340Z,41.47
2019-05-20T20:51:06.119Z,41.03
2019-05-20T20:53:43.733Z,40.27
2019-05-20T20:56:25.303Z,42.73
2019-05-20T20:58:58.366Z,42.93
2019-05-20T21:01:34.606Z,43.93
2019-05-20T21:04:18.331Z,51.08
2019-05-20T21:07:07.131Z,46.93
2019-05-20T21:09:42.825Z,48.40
2019-05-20T21:12:18.643Z,47.73
2019-05-20T21:14:56.114Z,49.50
2019-05-20T21:17:30.823Z,51.30
2019-05-20T21:20:06.033Z,51.87
2019-05-20T21:22:39.757Z,53.87
2019-05-20T21:25:13.528Z,55.13
2019-05-20T21:27:46.322Z,64.50
2019-05-20T21:30:19.737Z,53.03
2019-05-20T21:33:08.268Z,69.65
2019-05-20T21:35:45.190Z,66.55
2019-05-20T21:38:20.630Z,58.17
2019-05-20T21:40:55.198Z,58.93
2019-05-20T21:43:27.674Z,60.67
2019-05-20T21:46:01.883Z,67.27
2019-05-20T21:48:36.000Z,64.07
2019-05-20T21:51:10.639Z,75.00
2019-05-20T21:53:45.042Z,81.15
2019-05-20T21:56:23.792Z,72.97
2019-05-20T21:58:56.918Z,71.87
2019-05-20T22:01:31.439Z,82.75
2019-05-20T22:04:08.391Z,70.93
2019-05-20T22:06:41.080Z,72.43
2019-05-20T22:09:14.653Z,74.03
2019-05-20T22:11:47.495Z,69.57
2019-05-20T22:14:21.059Z,70.57
2019-05-20T22:16:55.796Z,83.47
2019-05-20T22:19:29.428Z,66.70
2019-05-20T22:22:22.548Z,75.32
2019-05-20T22:24:55.423Z,62.90
2019-05-20T22:27:28.194Z,57.50
2019-05-20T22:30:04.393Z,50.03
2019-05-20T22:32:37.555Z,46.40
2019-05-20T22:35:10.342Z,45.13
2019-05-20T22:37:42.946Z,50.33
2019-05-20T22:40:20.047Z,45.63
2019-05-20T22:42:55.012Z,44.83
2019-05-20T22:45:28.622Z,42.43
2019-05-20T22:48:01.504Z,40.50
2019-05-20T22:50:33.981Z,39.47
2019-05-20T22:53:08.765Z,38.93
2019-05-20T22:55:42.685Z,39.00
2019-05-20T22:58:22.146Z,36.43
2019-05-20T23:00:56.535Z,36.47
2019-05-20T23:03:29.899Z,38.17
2019-05-20T23:06:02.592Z,37.10
2019-05-20T23:08:35.237Z,41.40
2019-05-20T23:11:07.767Z,36.70
2019-05-20T23:13:41.185Z,43.17
2019-05-20T23:16:13.728Z,42.25
2019-05-20T23:18:49.707Z,37.43
2019-05-20T23:21:23.964Z,37.20
2019-05-20T23:23:56.558Z,38.10
2019-05-20T23:26:30.078Z,42.97
2019-05-20T23:29:03.434Z,45.85
2019-05-20T23:31:35.996Z,41.00
2019-05-20T23:34:13.138Z,40.53
2019-05-20T23:36:46.710Z,42.50
2019-05-20T23:39:20.711Z,50.43
2019-05-20T23:41:53.226Z,47.27
2019-05-20T23:44:25.771Z,47.13
2019-05-20T23:46:58.431Z,46.10
2019-05-20T23:49:31.758Z,49.73
2019-05-20T23:52:04.193Z,49.60
2019-05-20T23:54:37.022Z,54.87
2019-05-20T23:57:10.674Z,63.63
2019-05-20T23:59:43.746Z,60.60
